Strona główna
METAR-TAF:

METAR-TAF

Lotnisko :

Port lotniczy Gran Canaria

Gran Canaria, Hiszpania

Szerokość geograficzna: 27-56N, Długość geograficzna: 015-23W, wysokość: 23 m

Aktualna obserwacja pogody

Raport powstał 39 minut temu, godzina 07:30 UTC
Wiatr 9 kt od północ
Temperatura 18°C
Wilgotność 88%
Ciśnienie 1024 hPa
Widzialność 10 km lub więcej
Przerywane chmury na wysokości 1800 ft

METAR: GCLP 230730Z 35009KT 9999 BKN018 18/16 Q1024 NOSIG

czas: 08:09 (08:09 UTC)

Prognoza

Raport powstał 2 godziny i 54 minut temu, godzina 05:15 UTC
Prognoza ważna od 23 godzina 05 UTC do 24 godzina 03 UTC
Wiatr 10 kt od północ
Widzialność 10 km lub więcej
Przerywane chmury na wysokości 2000 ft
Przejściowo
od 23 godzina 05 UTC do 23 godzina 09 UTC
Widzialność: 3000 m
Przerywane chmury na wysokości 1200 ft
zamglenie
Stopniowe zmiany
od 23 godzina 09 UTC do 23 godzina 11 UTC
Wiatr 20 kt od północno-północny wschód

TAF: GCLP 230515Z 2305/2403 36010KT 9999 BKN020 TX22/2314Z TN17/2307Z TEMPO 2305/2309 3000 BR BKN012 BECMG 2309/2311 02020KT

Obserwacja i prognoza pogody dla ponad 4000 lotnisk (raport METAR i TAF).

Dostępne stacje oznaczono żółtymi i czerwonymi punktami na mapie.

Najedź kursorem aby zobaczyć nazwę stacji.

Kliknij aby zobaczyć obserwacje i prognozy pogody.

Aby zmienić mapę: kliknij na zielony przycisk z czarnym krzyżykiem, aby powiększyć; na zielony przycisk z myślnikiem, aby pomniejszyć; na zielone strzałki, aby przejść do map sąsiednich.


METAR-TAF: